• Join FlightAware (Why Join?)
  • Login
  • US Flag 
10:30PM EDT


 

Airport Tracker/Info


-or-


 

Live Flight TrackerFlight Track Log ✈ ASQ5685 ✈ 24-Jul-2013 ✈ KATL - KIAD

Flight Track Log - Related Links

Times and Time Zones

All times are in EDT time to prevent confusion due to time zone crossing. See the ASQ5685 flight status page for this flight to view local times or setup timezone preferences in your user account.

Time Position Orientation Groundspeed Altitude Reporting Facility
EDT Latitude Longitude Course Direction KTS MPH feet Rate Location/Type
09:22AM 33.6333 -84.4667 48° Northeast 167 192 2,300  Level Atlanta TRACON
09:23AM 33.6167 -84.5333 253° West 247 284 3,300 1,800 Climbing Atlanta TRACON
09:24AM 33.8489 -84.1758 73° East  Level Estimated
09:24AM 33.5500 -84.5833 212° Southwest 291 335 6,000  Level Atlanta TRACON
09:25AM 33.9195 -84.0915 54° Northeast  Level Estimated
09:25AM 33.4833 -84.5667 168° South 303 349 8,200  Level Atlanta TRACON
09:26AM 33.8995 -83.9742 102° East  Level FlightAware Approximate
09:26AM 33.4556 -84.4522 106° East 326 375 10,600  Level Atlanta Center
09:27AM 33.9707 -83.8906 48° Northeast  Level Estimated
09:27AM 33.4536 -84.3375 91° East 335 386 11,600  Level Atlanta Center
09:28AM 33.5081 -84.2456 55° Northeast 334 384 13,300 1,560 Climbing Atlanta Center
09:29AM 33.5981 -84.1858 29° Northeast 318 366 14,800 1,320 Climbing Atlanta Center
09:30AM 33.6878 -84.1236 30° Northeast 351 404 16,000 1,260 Climbing Atlanta Center
09:31AM 33.7608 -84.0389 44° Northeast 370 426 17,400 1,260 Climbing Atlanta Center
09:32AM 33.8192 -83.9289 57° Northeast 375 432 18,600 1,080 Climbing Atlanta Center
09:33AM 33.8775 -83.8136 59° Northeast 391 450 19,600 960 Climbing Atlanta Center
09:34AM 33.9378 -83.7033 57° Northeast 397 457 20,600 960 Climbing Atlanta Center
09:35AM 34.0042 -83.5953 53° Northeast 397 457 21,600 960 Climbing Atlanta Center
09:36AM 34.0769 -83.4819 52° Northeast 397 457 22,600 1,020 Climbing Atlanta Center
09:37AM 34.1431 -83.3736 54° Northeast 392 451 23,700 1,020 Climbing Atlanta Center
09:38AM 34.2092 -83.2703 52° Northeast 387 445 24,700 600 Climbing Atlanta Center
09:39AM 34.2753 -83.1639 53° Northeast 392 451 25,000 120 Climbing Atlanta Center
09:40AM 34.3414 -83.0500 55° Northeast 403 464 25,000  Level Atlanta Center
09:41AM 34.4153 -82.9333 52° Northeast 421 484 25,000  Level Atlanta Center
09:42AM 34.4914 -82.8139 52° Northeast 433 498 25,000  Level Atlanta Center
09:43AM 34.5694 -82.6942 52° Northeast 443 510 25,000  Level Atlanta Center
09:44AM 34.6433 -82.5769 53° Northeast 443 510 25,000  Level Atlanta Center
09:45AM 34.7169 -82.4492 55° Northeast 443 510 25,000  Level Atlanta Center
09:46AM 34.7925 -82.3264 53° Northeast 449 517 25,000  Level Atlanta Center
09:47AM 34.8678 -82.2008 54° Northeast 454 522 25,000  Level Atlanta Center
09:48AM 34.9369 -82.0903 53° Northeast 454 522 25,000  Level Atlanta Center
09:49AM 35.0144 -81.9669 52° Northeast 454 522 25,000  Level Atlanta Center
09:50AM 35.0850 -81.8356 57° Northeast 460 529 25,000  Level Atlanta Center
09:51AM 35.1617 -81.6886 57° Northeast 460 529 25,000  Level Atlanta Center
09:52AM 35.2300 -81.5572 57° Northeast 460 529 25,000  Level Atlanta Center
09:53AM 35.2983 -81.4253 58° Northeast 460 529 25,000  Level Atlanta Center
09:54AM 35.3664 -81.2933 58° Northeast 460 529 25,000  Level Atlanta Center
09:55AM 35.4361 -81.1583 58° Northeast 460 529 25,000  Level Atlanta Center
09:56AM 35.5081 -81.0206 57° Northeast 465 535 25,000  Level Atlanta Center
09:57AM 35.5797 -80.8878 56° Northeast 465 535 25,000  Level Atlanta Center
09:58AM 35.6472 -80.7547 58° Northeast 465 535 25,000  Level Atlanta Center
09:59AM 35.7186 -80.6189 57° Northeast 465 535 25,000  Level Atlanta Center
10:00AM 35.7878 -80.4856 57° Northeast 465 535 25,000  Level Atlanta Center
10:01AM 35.8567 -80.3494 58° Northeast 465 535 25,000  Level Atlanta Center
10:03AM 36.0197 -80.0272 58° Northeast 468 539 25,000  Level Washington Center
10:04AM 36.0936 -79.8900 56° Northeast 468 539 25,000  Level Washington Center
10:05AM 36.1711 -79.7578 54° Northeast 473 544 25,000  Level Washington Center
10:06AM 36.2378 -79.6403 55° Northeast 473 544 25,000  Level Washington Center
10:07AM 36.3219 -79.4925 55° Northeast 473 544 25,000  Level Washington Center
10:08AM 36.3953 -79.3567 56° Northeast 473 544 25,000  Level Washington Center
10:09AM 36.4658 -79.2336 54° Northeast 478 550 25,000  Level Washington Center
10:10AM 36.5408 -79.0975 56° Northeast 478 550 25,000  Level Washington Center
10:11AM 36.6244 -78.9486 55° Northeast 478 550 25,000  Level Washington Center
10:12AM 36.6992 -78.8119 56° Northeast 478 550 25,000  Level Washington Center
10:13AM 36.7758 -78.6725 56° Northeast 478 550 25,000  Level Washington Center
10:14AM 36.8625 -78.5461 49° Northeast 478 550 25,000 -360 Level Washington Center
10:15AM 36.9567 -78.4483 40° Northeast 494 568 24,300 -660 Descending Washington Center
10:16AM 37.0594 -78.3378 41° Northeast 489 563 23,800 -600 Descending Washington Center
10:17AM 37.1661 -78.2242 40° Northeast 489 563 23,200 -660 Descending Washington Center
10:18AM 37.2772 -78.1028 41° Northeast 482 555 22,500 -600 Descending Washington Center
10:19AM 37.3775 -77.9964 40° Northeast 476 548 22,000 -300 Descending Washington Center
10:20AM 37.4756 -77.8894 41° Northeast 471 542 22,000  Level Washington Center
10:21AM 37.5814 -77.7983 34° Northeast 466 536 22,000 -900 Level Washington Center
10:22AM 37.6953 -77.7281 26° Northeast 460 529 20,200 -2,220 Descending Washington Center
10:23AM 37.8050 -77.6681 23° Northeast 445 512 17,600 -2,580 Descending Washington Center
10:24AM 37.9039 -77.6103 25° Northeast 413 475 15,200 -2,460 Descending Washington Center
10:25AM 37.9944 -77.5575 25° Northeast 384 442 12,800 -2,340 Descending Washington Center
10:26AM 38.0744 -77.5119 24° Northeast 351 404 10,500 -1,380 Descending Washington Center
10:27AM 38.1544 -77.4639 25° Northeast 333 383 10,000 -480 Descending Washington Center
10:28AM 38.2322 -77.4342 17° North 306 352 9,600 -840 Descending Washington Center
10:29AM 38.3133 -77.4361 359° North 294 338 8,400 -1,260 Descending Washington Center
10:30AM 38.3925 -77.4381 359° North 288 331 7,200 -1,260 Descending Washington Center
10:31AM 38.4719 -77.4375 360° North 288 331 6,000 -1,200 Descending Washington Center
10:32AM 38.5469 -77.4367 360° North 283 326 4,900 -1,020 Descending Washington Center
10:33AM 38.6219 -77.4383 359° North 270 311 4,000 -1,020 Descending Washington Center
10:34AM 38.6667 -77.4333 North 255 293 3,300 -660 Descending Potomac TRACON
10:35AM 38.7333 -77.4333 360° North 249 287 3,000 -300 Descending Potomac TRACON